createdAt,value
2023-02-02T00:01:29.078Z,7.60
2023-02-02T00:03:58.913Z,7.59
2023-02-02T00:06:29.727Z,7.49
2023-02-02T00:09:01.124Z,7.18
2023-02-02T00:11:30.844Z,7.23
2023-02-02T00:14:01.026Z,7.52
2023-02-02T00:16:47.078Z,7.51
2023-02-02T00:19:18.114Z,6.43
2023-02-02T00:21:48.397Z,7.51
2023-02-02T00:24:19.345Z,7.57
2023-02-02T00:26:50.862Z,7.35
2023-02-02T00:29:22.595Z,7.44
2023-02-02T00:31:54.443Z,7.47
2023-02-02T00:34:24.619Z,7.27
2023-02-02T00:36:54.729Z,7.39
2023-02-02T00:39:27.190Z,7.48
2023-02-02T00:41:58.631Z,7.62
2023-02-02T00:44:45.355Z,7.67
2023-02-02T00:47:16.979Z,7.68
2023-02-02T00:49:46.731Z,7.55
2023-02-02T00:52:16.404Z,7.66
2023-02-02T00:54:46.907Z,7.65
2023-02-02T00:57:17.023Z,6.90
2023-02-02T00:59:47.061Z,7.70
2023-02-02T01:02:17.923Z,7.68
2023-02-02T01:04:47.397Z,7.78
2023-02-02T01:07:17.418Z,7.55
2023-02-02T01:09:47.332Z,7.48
2023-02-02T01:12:16.883Z,7.52
2023-02-02T01:14:46.241Z,7.68
2023-02-02T01:17:17.226Z,7.71
2023-02-02T01:19:46.987Z,7.66
2023-02-02T01:22:16.670Z,7.53
2023-02-02T01:24:46.139Z,7.60
2023-02-02T01:27:15.884Z,7.61
2023-02-02T01:29:45.840Z,7.66
2023-02-02T01:32:15.487Z,7.54
2023-02-02T01:34:46.322Z,7.64
2023-02-02T01:37:16.131Z,7.64
2023-02-02T01:39:46.317Z,7.55
2023-02-02T01:42:21.697Z,7.58
2023-02-02T01:45:15.638Z,7.62
2023-02-02T01:47:51.340Z,7.65
2023-02-02T01:50:23.690Z,7.56
2023-02-02T01:52:56.752Z,7.55
2023-02-02T01:55:30.395Z,7.59
2023-02-02T01:58:04.082Z,7.51
2023-02-02T02:00:33.910Z,7.60
2023-02-02T02:03:07.738Z,7.64
2023-02-02T02:05:51.142Z,7.64
2023-02-02T02:08:24.906Z,7.65
2023-02-02T02:10:55.004Z,7.57
2023-02-02T02:13:48.087Z,7.44
2023-02-02T02:16:25.179Z,7.66
2023-02-02T02:19:05.644Z,7.62
2023-02-02T02:22:09.121Z,7.56
2023-02-02T02:25:35.084Z,7.66
2023-02-02T02:28:53.147Z,7.61
2023-02-02T02:32:00.784Z,7.53
2023-02-02T02:34:42.593Z,7.72
2023-02-02T02:37:18.288Z,7.67
2023-02-02T02:39:56.422Z,6.57
2023-02-02T02:42:31.548Z,7.60
2023-02-02T02:45:03.984Z,7.67
2023-02-02T02:47:37.515Z,7.71
2023-02-02T02:50:08.414Z,7.45
2023-02-02T02:52:40.351Z,6.68
2023-02-02T02:55:13.801Z,7.74
2023-02-02T02:58:01.956Z,7.58
2023-02-02T03:00:48.316Z,7.69
2023-02-02T03:03:35.955Z,7.37
2023-02-02T03:06:13.877Z,7.65
2023-02-02T03:08:47.389Z,7.55
2023-02-02T03:11:18.624Z,7.39
2023-02-02T03:13:49.025Z,7.39
2023-02-02T03:16:19.262Z,7.69
2023-02-02T03:18:50.163Z,7.71
2023-02-02T03:21:19.870Z,7.66
2023-02-02T03:23:51.680Z,7.63
2023-02-02T03:26:21.775Z,6.62
2023-02-02T03:28:51.647Z,7.40
2023-02-02T03:31:21.274Z,7.75
2023-02-02T03:33:52.401Z,7.54
2023-02-02T03:36:22.122Z,7.81
2023-02-02T03:38:52.156Z,7.82
2023-02-02T03:41:21.743Z,7.78
2023-02-02T03:43:51.244Z,7.51
2023-02-02T03:46:20.747Z,7.61
2023-02-02T03:48:51.761Z,7.73
2023-02-02T03:51:21.456Z,7.89
2023-02-02T03:53:51.028Z,7.85
2023-02-02T03:56:20.644Z,7.84
2023-02-02T03:58:50.177Z,7.87
2023-02-02T04:01:27.654Z,6.56
2023-02-02T04:04:00.820Z,7.73
2023-02-02T04:06:31.663Z,7.85
2023-02-02T04:09:01.741Z,7.76
2023-02-02T04:11:32.101Z,7.81
2023-02-02T04:14:02.693Z,7.86
2023-02-02T04:16:35.453Z,7.76
2023-02-02T04:19:07.575Z,7.89
2023-02-02T04:21:38.073Z,7.59
2023-02-02T04:24:12.057Z,7.58
2023-02-02T04:26:42.502Z,7.81
2023-02-02T04:29:11.639Z,7.74
2023-02-02T04:31:41.534Z,7.00
2023-02-02T04:34:12.729Z,7.90
2023-02-02T04:36:42.061Z,7.73
2023-02-02T04:39:14.333Z,7.96
2023-02-02T04:41:43.427Z,7.84
2023-02-02T04:44:16.228Z,7.85
2023-02-02T04:46:48.763Z,7.92
2023-02-02T04:49:19.853Z,7.93
2023-02-02T04:51:50.584Z,8.03
2023-02-02T04:54:21.069Z,7.96
2023-02-02T04:56:51.277Z,7.05
2023-02-02T04:59:21.262Z,6.86
2023-02-02T05:01:51.537Z,7.85
2023-02-02T05:04:22.558Z,7.94
2023-02-02T05:06:52.714Z,7.62
2023-02-02T05:09:22.333Z,7.75
2023-02-02T05:11:52.233Z,8.05
2023-02-02T05:14:22.122Z,7.94
2023-02-02T05:16:52.895Z,7.93
2023-02-02T05:19:23.952Z,7.94
2023-02-02T05:21:55.868Z,8.06
2023-02-02T05:24:26.117Z,7.81
2023-02-02T05:27:00.574Z,7.94
2023-02-02T05:29:30.705Z,8.11
2023-02-02T05:32:00.841Z,8.03
2023-02-02T05:34:31.573Z,7.94
2023-02-02T05:37:01.233Z,7.95
2023-02-02T05:39:30.331Z,7.77
2023-02-02T05:41:59.869Z,7.86
2023-02-02T05:44:29.479Z,7.83
2023-02-02T05:47:00.756Z,7.61
2023-02-02T05:49:31.462Z,7.78
2023-02-02T05:52:01.222Z,7.63
2023-02-02T05:54:34.940Z,7.73
2023-02-02T05:57:04.546Z,7.82
2023-02-02T05:59:33.926Z,7.40
2023-02-02T06:02:03.494Z,7.56
2023-02-02T06:04:34.179Z,5.65
2023-02-02T06:07:05.025Z,7.79
2023-02-02T06:09:34.817Z,7.76
2023-02-02T06:12:04.743Z,7.53
2023-02-02T06:14:34.322Z,7.81
2023-02-02T06:17:03.786Z,7.51
2023-02-02T06:19:34.224Z,7.70
2023-02-02T06:22:04.100Z,7.84
2023-02-02T06:24:33.680Z,7.40
2023-02-02T06:27:03.450Z,7.77
2023-02-02T06:29:33.038Z,7.69
2023-02-02T06:32:03.597Z,7.75
2023-02-02T06:34:34.366Z,7.65
2023-02-02T06:37:04.138Z,7.70
2023-02-02T06:39:33.517Z,7.70
2023-02-02T06:42:20.006Z,7.32
2023-02-02T06:44:51.003Z,7.08
2023-02-02T06:47:20.537Z,7.48
2023-02-02T06:49:51.144Z,7.49
2023-02-02T06:52:20.492Z,7.51
2023-02-02T06:54:50.518Z,7.51
2023-02-02T06:57:20.064Z,7.45
2023-02-02T06:59:50.703Z,7.54
2023-02-02T07:02:20.155Z,7.35
2023-02-02T07:04:50.548Z,7.48
2023-02-02T07:07:20.445Z,7.62
2023-02-02T07:09:58.116Z,7.39
2023-02-02T07:12:28.492Z,7.35
2023-02-02T07:14:59.499Z,7.58
2023-02-02T07:17:29.053Z,7.55
2023-02-02T07:19:59.861Z,6.19
2023-02-02T07:22:29.424Z,7.57
2023-02-02T07:24:58.895Z,7.70
2023-02-02T07:27:28.515Z,7.67
2023-02-02T07:29:58.274Z,7.44
2023-02-02T07:32:30.139Z,6.67
2023-02-02T07:35:00.946Z,7.72
2023-02-02T07:37:30.312Z,7.43
2023-02-02T07:39:59.477Z,7.64
2023-02-02T07:42:28.775Z,7.65
2023-02-02T07:44:58.712Z,7.66
2023-02-02T07:47:28.451Z,7.51
2023-02-02T07:49:57.941Z,7.53
2023-02-02T07:52:30.642Z,7.55
2023-02-02T07:55:14.055Z,7.60
2023-02-02T07:57:44.663Z,7.44
2023-02-02T08:00:15.288Z,7.53
2023-02-02T08:02:44.386Z,7.54
2023-02-02T08:05:14.061Z,7.48
2023-02-02T08:07:44.981Z,7.55
2023-02-02T08:10:14.458Z,7.58
2023-02-02T08:12:46.770Z,7.56
2023-02-02T08:15:16.515Z,7.49
2023-02-02T08:17:50.393Z,7.49
2023-02-02T08:20:20.719Z,7.21
2023-02-02T08:22:51.382Z,7.53
2023-02-02T08:25:21.032Z,7.25
2023-02-02T08:27:55.014Z,7.30
2023-02-02T08:30:27.377Z,6.51
2023-02-02T08:32:57.119Z,7.52
2023-02-02T08:35:26.870Z,7.60
2023-02-02T08:37:58.157Z,7.54
2023-02-02T08:40:27.987Z,7.34
2023-02-02T08:42:57.778Z,7.61
2023-02-02T08:46:01.395Z,7.55
2023-02-02T08:48:19.908Z,7.64
2023-02-02T08:50:55.258Z,7.68
2023-02-02T08:53:27.246Z,7.65
2023-02-02T08:56:00.751Z,7.55
2023-02-02T08:58:31.109Z,7.76
2023-02-02T09:01:07.232Z,7.77
2023-02-02T09:03:39.234Z,7.73
2023-02-02T09:06:11.495Z,7.70
2023-02-02T09:08:42.728Z,6.71
2023-02-02T09:11:13.771Z,7.60
2023-02-02T09:13:45.971Z,7.73
2023-02-02T09:16:16.933Z,7.79
2023-02-02T09:18:49.313Z,7.76
2023-02-02T09:21:20.043Z,7.80
2023-02-02T09:23:53.848Z,7.81
2023-02-02T09:26:24.733Z,7.77
2023-02-02T09:28:56.881Z,7.78
2023-02-02T09:31:27.181Z,7.54
2023-02-02T09:34:03.698Z,7.79
2023-02-02T09:36:33.365Z,7.67
2023-02-02T09:39:05.142Z,7.68
2023-02-02T09:41:59.525Z,7.82
2023-02-02T09:44:48.338Z,7.62
2023-02-02T09:47:20.370Z,7.79
2023-02-02T09:49:58.385Z,7.80
2023-02-02T09:52:31.270Z,7.78
2023-02-02T09:55:06.300Z,7.39
2023-02-02T09:57:40.908Z,7.91
2023-02-02T10:00:26.017Z,7.84
2023-02-02T10:03:01.309Z,8.00
2023-02-02T10:05:37.817Z,8.03
2023-02-02T10:08:11.573Z,8.15
2023-02-02T10:10:45.479Z,8.07
2023-02-02T10:13:19.011Z,8.09
2023-02-02T10:16:01.579Z,7.92
2023-02-02T10:18:41.336Z,8.14
2023-02-02T10:21:15.192Z,8.10
2023-02-02T10:23:46.533Z,8.11
2023-02-02T10:26:20.745Z,6.92
2023-02-02T10:29:09.158Z,8.12
2023-02-02T10:31:45.848Z,7.98
2023-02-02T10:34:25.304Z,8.13
2023-02-02T10:37:13.037Z,8.17
2023-02-02T10:39:58.401Z,8.20
2023-02-02T10:42:39.643Z,8.09
2023-02-02T10:45:15.702Z,8.14
2023-02-02T10:47:46.452Z,8.29
2023-02-02T10:50:20.640Z,8.27
2023-02-02T10:52:53.738Z,8.20
2023-02-02T10:55:30.005Z,8.32
2023-02-02T10:58:07.444Z,8.25
2023-02-02T11:00:45.522Z,8.33
2023-02-02T11:03:16.603Z,8.28
2023-02-02T11:06:03.385Z,8.42
2023-02-02T11:08:36.356Z,8.48
2023-02-02T11:11:13.594Z,8.43
2023-02-02T11:13:50.202Z,8.59
2023-02-02T11:16:32.622Z,8.44
2023-02-02T11:19:24.742Z,8.54
2023-02-02T11:21:56.780Z,8.50
2023-02-02T11:24:29.224Z,8.44
2023-02-02T11:27:03.284Z,8.56
2023-02-02T11:29:37.404Z,8.21
2023-02-02T11:32:28.953Z,8.61
2023-02-02T11:35:18.698Z,8.67
2023-02-02T11:37:57.519Z,8.64
2023-02-02T11:40:33.154Z,8.45
2023-02-02T11:43:05.612Z,8.66
2023-02-02T11:45:39.764Z,8.67
2023-02-02T11:48:16.212Z,8.63
2023-02-02T11:50:49.298Z,8.64
2023-02-02T11:53:28.550Z,8.67
2023-02-02T11:56:01.500Z,8.74
2023-02-02T11:58:42.621Z,8.79
2023-02-02T12:01:35.165Z,8.51
2023-02-02T12:04:24.537Z,8.36
2023-02-02T12:06:54.136Z,8.44
2023-02-02T12:09:24.999Z,8.45
2023-02-02T12:12:04.215Z,8.22
2023-02-02T12:14:47.166Z,8.74
2023-02-02T12:17:31.991Z,8.66
2023-02-02T12:20:14.906Z,8.32
2023-02-02T12:23:14.648Z,8.55
2023-02-02T12:26:12.769Z,8.59
2023-02-02T12:29:01.855Z,8.66
2023-02-02T12:31:45.604Z,8.51
2023-02-02T12:34:21.511Z,8.63
2023-02-02T12:37:03.299Z,8.43
2023-02-02T12:39:39.075Z,8.40
2023-02-02T12:42:32.363Z,8.31
2023-02-02T12:45:30.256Z,8.27
2023-02-02T12:48:15.353Z,8.37
2023-02-02T12:51:01.623Z,8.22
2023-02-02T12:53:46.025Z,8.23
2023-02-02T12:56:24.832Z,8.17
2023-02-02T12:59:04.953Z,8.16
2023-02-02T13:01:52.896Z,8.02
2023-02-02T13:07:44.850Z,6.92
2023-02-02T13:10:24.701Z,7.95
2023-02-02T13:12:59.015Z,7.61
2023-02-02T13:15:34.534Z,8.02
2023-02-02T13:18:12.131Z,7.92
2023-02-02T13:20:45.383Z,7.92
2023-02-02T13:23:23.631Z,7.77
2023-02-02T13:25:59.651Z,8.03
2023-02-02T13:28:41.815Z,7.96
2023-02-02T13:31:18.294Z,7.86
2023-02-02T13:34:06.695Z,7.89
2023-02-02T13:36:38.994Z,7.91
2023-02-02T13:39:19.955Z,7.51
2023-02-02T13:41:51.041Z,7.69
2023-02-02T13:44:27.287Z,7.61
2023-02-02T13:47:02.817Z,7.76
2023-02-02T13:49:35.887Z,7.84
2023-02-02T13:52:28.290Z,7.77
2023-02-02T13:55:29.225Z,7.60
2023-02-02T13:58:22.858Z,7.46
2023-02-02T14:00:55.194Z,7.83
2023-02-02T14:03:33.952Z,7.78
2023-02-02T14:06:09.921Z,7.62
2023-02-02T14:08:44.347Z,7.40
2023-02-02T14:11:21.822Z,7.45
2023-02-02T14:14:11.246Z,7.59
2023-02-02T14:16:58.104Z,7.60
2023-02-02T14:19:50.550Z,7.68
2023-02-02T14:22:37.153Z,7.62
2023-02-02T14:25:53.622Z,7.75
2023-02-02T14:28:46.829Z,7.70
2023-02-02T14:31:52.360Z,7.57
2023-02-02T14:34:30.816Z,7.65
2023-02-02T14:37:23.232Z,7.52
2023-02-02T14:40:01.045Z,7.44
2023-02-02T14:43:06.885Z,7.54
2023-02-02T14:45:39.891Z,7.52
2023-02-02T14:48:14.213Z,7.51
2023-02-02T14:50:49.535Z,7.82
2023-02-02T14:53:26.767Z,7.68
2023-02-02T14:56:00.643Z,7.60
2023-02-02T14:58:34.989Z,7.67
2023-02-02T15:01:13.901Z,7.78
2023-02-02T15:03:50.235Z,7.70
2023-02-02T15:06:33.129Z,7.77
2023-02-02T15:09:36.740Z,7.81
2023-02-02T15:12:31.097Z,7.71
2023-02-02T15:15:17.691Z,7.67
2023-02-02T15:18:01.169Z,7.76
2023-02-02T15:20:33.443Z,7.73
2023-02-02T15:23:07.184Z,7.82
2023-02-02T15:25:42.157Z,7.89
2023-02-02T15:28:21.221Z,7.67
2023-02-02T15:30:56.751Z,7.79
2023-02-02T15:33:32.228Z,7.79
2023-02-02T15:36:04.849Z,7.87
2023-02-02T15:38:37.581Z,7.90
2023-02-02T15:41:15.694Z,7.95
2023-02-02T15:43:45.051Z,7.82
2023-02-02T15:46:24.424Z,8.01
2023-02-02T15:49:33.323Z,8.00
2023-02-02T15:52:14.095Z,7.57
2023-02-02T15:54:53.407Z,7.65
2023-02-02T15:57:32.099Z,7.83
2023-02-02T16:00:18.222Z,7.89
2023-02-02T16:02:49.322Z,7.91
2023-02-02T16:05:39.497Z,7.91
2023-02-02T16:08:15.779Z,7.85
2023-02-02T16:10:46.806Z,7.89
2023-02-02T16:13:26.458Z,7.55
2023-02-02T16:15:58.324Z,8.20
2023-02-02T16:18:27.931Z,7.76
2023-02-02T16:21:02.075Z,8.01
2023-02-02T16:23:34.712Z,7.99
2023-02-02T16:26:07.751Z,7.73
2023-02-02T16:28:37.357Z,7.94
2023-02-02T16:31:07.648Z,7.91
2023-02-02T16:33:39.454Z,7.68
2023-02-02T16:36:26.023Z,8.11
2023-02-02T16:38:57.881Z,8.01
2023-02-02T16:41:33.021Z,8.21
2023-02-02T16:44:31.679Z,8.12
2023-02-02T16:47:01.936Z,7.90
2023-02-02T16:49:37.071Z,7.96
2023-02-02T16:52:14.463Z,7.72
2023-02-02T16:54:53.020Z,7.69
2023-02-02T16:57:27.999Z,7.85
2023-02-02T17:00:00.623Z,7.93
2023-02-02T17:02:33.231Z,7.94
2023-02-02T17:05:07.980Z,7.98
2023-02-02T17:07:40.044Z,7.99
2023-02-02T17:10:24.678Z,7.95
2023-02-02T17:12:54.867Z,6.97
2023-02-02T17:15:34.970Z,8.03
2023-02-02T17:18:06.496Z,8.26
2023-02-02T17:20:36.551Z,8.13
2023-02-02T17:23:10.031Z,8.10
2023-02-02T17:25:42.542Z,8.29
2023-02-02T17:28:14.070Z,8.27
2023-02-02T17:30:44.518Z,8.17
2023-02-02T17:33:16.041Z,8.23
2023-02-02T17:35:55.788Z,8.35
2023-02-02T17:38:28.501Z,8.18
2023-02-02T17:41:01.658Z,8.14
2023-02-02T17:43:32.807Z,8.25
2023-02-02T17:46:04.371Z,8.32
2023-02-02T17:48:35.634Z,8.27
2023-02-02T17:51:07.267Z,8.32
2023-02-02T17:53:38.352Z,8.30
2023-02-02T17:56:08.343Z,8.20
2023-02-02T17:58:37.707Z,8.21
2023-02-02T18:01:08.600Z,7.42
2023-02-02T18:03:40.959Z,8.30
2023-02-02T18:06:12.305Z,8.27
2023-02-02T18:08:42.747Z,8.35
2023-02-02T18:11:14.304Z,8.29
2023-02-02T18:13:46.218Z,8.39
2023-02-02T18:16:16.933Z,8.41
2023-02-02T18:18:46.884Z,7.25
2023-02-02T18:21:15.991Z,8.38
2023-02-02T18:23:49.007Z,8.38
2023-02-02T18:26:22.184Z,8.33
2023-02-02T18:28:52.202Z,8.56
2023-02-02T18:31:23.936Z,8.24
2023-02-02T18:33:54.618Z,8.09
2023-02-02T18:36:24.152Z,7.85
2023-02-02T18:38:55.095Z,8.28
2023-02-02T18:41:26.671Z,8.26
2023-02-02T18:43:56.556Z,8.21
2023-02-02T18:46:26.881Z,8.19
2023-02-02T18:48:57.226Z,8.08
2023-02-02T18:51:27.487Z,8.03
2023-02-02T18:54:01.028Z,8.20
2023-02-02T18:56:30.768Z,7.90
2023-02-02T18:59:01.428Z,8.06
2023-02-02T19:01:31.002Z,7.09
2023-02-02T19:04:01.360Z,8.06
2023-02-02T19:06:48.066Z,8.00
2023-02-02T19:09:18.983Z,7.77
2023-02-02T19:11:54.894Z,8.12
2023-02-02T19:14:28.879Z,8.01
2023-02-02T19:17:08.142Z,8.02
2023-02-02T19:19:40.453Z,8.00
2023-02-02T19:22:19.776Z,8.16
2023-02-02T19:24:51.584Z,8.10
2023-02-02T19:27:23.128Z,8.18
2023-02-02T19:29:59.944Z,8.45
2023-02-02T19:32:34.909Z,8.46
2023-02-02T19:35:08.950Z,8.23
2023-02-02T19:37:40.077Z,8.43
2023-02-02T19:40:20.307Z,8.52
2023-02-02T19:42:57.545Z,8.50
2023-02-02T19:45:31.383Z,8.71
2023-02-02T19:48:03.568Z,8.75
2023-02-02T19:50:41.405Z,8.82
2023-02-02T19:53:17.484Z,8.72
2023-02-02T19:55:49.074Z,8.80
2023-02-02T19:58:23.396Z,8.80
2023-02-02T20:00:54.792Z,8.59
2023-02-02T20:03:26.989Z,8.83
2023-02-02T20:05:58.937Z,8.94
2023-02-02T20:08:37.329Z,8.74
2023-02-02T20:11:32.464Z,8.84
2023-02-02T20:14:28.756Z,8.79
2023-02-02T20:17:02.351Z,8.94
2023-02-02T20:19:36.276Z,8.96
2023-02-02T20:22:25.234Z,8.88
2023-02-02T20:24:56.656Z,8.90
2023-02-02T20:27:29.159Z,8.68
2023-02-02T20:30:02.205Z,8.63
2023-02-02T20:32:41.028Z,8.80
2023-02-02T20:35:24.150Z,8.92
2023-02-02T20:37:56.138Z,8.77
2023-02-02T20:40:27.916Z,9.03
2023-02-02T20:42:59.362Z,8.89
2023-02-02T20:45:29.946Z,8.93
2023-02-02T20:48:00.285Z,8.84
2023-02-02T20:50:31.114Z,9.02
2023-02-02T20:53:01.595Z,8.99
2023-02-02T20:55:30.709Z,8.92
2023-02-02T20:58:04.608Z,8.91
2023-02-02T21:00:36.821Z,8.98
2023-02-02T21:03:07.041Z,8.89
2023-02-02T21:05:36.460Z,9.00
2023-02-02T21:08:07.424Z,8.93
2023-02-02T21:10:36.727Z,8.69
2023-02-02T21:13:07.468Z,8.86
2023-02-02T21:15:37.003Z,8.83
2023-02-02T21:18:06.829Z,8.83
2023-02-02T21:20:37.897Z,8.86
2023-02-02T21:23:09.939Z,8.89
2023-02-02T21:25:41.609Z,8.99
2023-02-02T21:28:12.563Z,8.79
2023-02-02T21:30:42.522Z,8.98
2023-02-02T21:33:11.892Z,8.96
2023-02-02T21:35:40.968Z,8.92
2023-02-02T21:38:15.595Z,9.04
2023-02-02T21:40:46.871Z,9.05
2023-02-02T21:43:19.848Z,9.03
2023-02-02T21:45:51.822Z,8.81
2023-02-02T21:48:30.958Z,8.89
2023-02-02T21:51:17.705Z,8.95
2023-02-02T21:53:47.449Z,8.84
2023-02-02T21:56:27.672Z,8.96
2023-02-02T21:59:01.482Z,8.95
2023-02-02T22:01:35.519Z,8.75
2023-02-02T22:04:05.107Z,7.77
2023-02-02T22:06:36.143Z,8.91
2023-02-02T22:09:16.470Z,9.04
2023-02-02T22:11:49.219Z,8.93
2023-02-02T22:14:28.339Z,8.89
2023-02-02T22:16:59.006Z,8.88
2023-02-02T22:19:33.171Z,8.79
2023-02-02T22:22:15.632Z,8.81
2023-02-02T22:24:46.095Z,8.79
2023-02-02T22:27:26.722Z,8.88
2023-02-02T22:30:02.255Z,8.90
2023-02-02T22:32:31.598Z,8.87
2023-02-02T22:35:00.832Z,8.88
2023-02-02T22:37:30.201Z,8.66
2023-02-02T22:40:01.869Z,8.73
2023-02-02T22:42:30.953Z,8.67
2023-02-02T22:45:01.417Z,8.79
2023-02-02T22:47:31.005Z,8.76
2023-02-02T22:50:00.643Z,8.62
2023-02-02T22:52:30.172Z,8.71
2023-02-02T22:55:00.239Z,8.54
2023-02-02T22:57:29.520Z,8.84
2023-02-02T22:59:59.384Z,8.82
2023-02-02T23:02:32.167Z,8.67
2023-02-02T23:05:01.834Z,8.65
2023-02-02T23:07:31.008Z,8.58
2023-02-02T23:10:00.696Z,8.84
2023-02-02T23:12:30.374Z,8.89
2023-02-02T23:15:00.193Z,8.77
2023-02-02T23:17:29.375Z,8.82
2023-02-02T23:20:00.534Z,8.92
2023-02-02T23:22:29.998Z,8.92
2023-02-02T23:25:04.857Z,9.00
2023-02-02T23:27:34.339Z,8.90
2023-02-02T23:30:04.884Z,8.82
2023-02-02T23:32:34.929Z,8.71
2023-02-02T23:35:08.755Z,8.92
2023-02-02T23:37:39.355Z,8.76
2023-02-02T23:40:10.096Z,8.91
2023-02-02T23:42:39.768Z,8.83
2023-02-02T23:45:10.495Z,8.83
2023-02-02T23:47:40.229Z,8.81
2023-02-02T23:50:12.399Z,8.92
2023-02-02T23:52:41.891Z,8.89
2023-02-02T23:55:12.040Z,8.97
2023-02-02T23:57:41.582Z,8.00
